McKinley, Minnesota
Current Conditions -  °F | °C
As of 8:12 AM on Wednesday 26 Nov 2014 (Local Time) from KEVM Reporting Station
Overcast Overcast  
Wind Chill:   Ceiling: 3600
Heat Index: 18°   Visibility: 10mi
Dew Point: 12°   Wind: 7mph
Humidity: 79%   Direction: 350°N
Pressure: 30.16"   Gusts: NA
Location:  47.4793°N, 92.3932°W
Report Text: KEVM 261412Z AUTO 35006KT 10SM OVC036 M08/M11 A3016 RMK AO2
Loading
Personal Weather Stations






























Interactive Weather Map New forecast layout! Learn more

10-Day Weather Forecast

Advertisements
Track Severe Weather on mobile